Time;durP1;ratioP1;P1;durP2;ratioP2;P2;SDS_P1;SDS_P2;PMS_P1;PMS_P2;Temp;Humidity;BMP_temperature;BMP_pressure;BME280_temperature;BME280_humidity;BME280_pressure;Samples;Min_cycle;Max_cycle;Signal;HPM_P1;HPM_P2
2023/07/20 00:02:02;;;;;;;5.70;2.88;;;;;;;;;;6192365;23;20421;-84
2023/07/20 00:04:29;;;;;;;7.03;2.80;;;;;;;;;;6191888;23;20028;-81
2023/07/20 00:06:57;;;;;;;6.57;2.70;;;;;;;;;;6193707;23;20021;-83
2023/07/20 00:09:24;;;;;;;4.45;2.47;;;;;;;;;;6192959;23;20025;-82
2023/07/20 00:11:52;;;;;;;4.65;2.85;;;;;;;;;;6193505;23;20025;-83
2023/07/20 00:14:19;;;;;;;4.50;2.33;;;;;;;;;;6194176;23;20028;-82
2023/07/20 00:16:46;;;;;;;4.88;2.38;;;;;;;;;;6191566;23;20021;-77
2023/07/20 00:19:13;;;;;;;6.82;2.92;;;;;;;;;;6195775;23;20052;-79
2023/07/20 00:21:40;;;;;;;5.72;2.40;;;;;;;;;;6196443;23;20056;-78
2023/07/20 00:24:08;;;;;;;4.38;2.65;;;;;;;;;;6191331;23;20123;-80
2023/07/20 00:26:35;;;;;;;4.72;2.10;;;;;;;;;;6191508;23;20071;-80
2023/07/20 00:29:02;;;;;;;5.15;2.53;;;;;;;;;;6191430;23;20046;-80
2023/07/20 00:31:29;;;;;;;5.00;2.42;;;;;;;;;;6190517;23;20079;-78
2023/07/20 00:33:56;;;;;;;4.90;2.40;;;;;;;;;;6188406;23;20051;-79
2023/07/20 00:36:23;;;;;;;4.47;2.45;;;;;;;;;;6189020;23;20036;-78
2023/07/20 00:38:50;;;;;;;5.45;2.95;;;;;;;;;;6191578;23;20332;-82
2023/07/20 00:41:18;;;;;;;4.55;2.30;;;;;;;;;;6191422;23;20031;-82
2023/07/20 00:43:45;;;;;;;4.95;2.30;;;;;;;;;;6191443;23;20025;-80
2023/07/20 00:46:12;;;;;;;6.07;2.53;;;;;;;;;;6190995;23;20048;-80
2023/07/20 00:48:40;;;;;;;5.55;2.33;;;;;;;;;;6190196;23;20021;-81
2023/07/20 00:51:07;;;;;;;4.22;2.00;;;;;;;;;;6190034;23;20528;-82
2023/07/20 00:53:34;;;;;;;4.40;2.28;;;;;;;;;;6190153;23;20100;-82
2023/07/20 00:56:02;;;;;;;4.65;2.40;;;;;;;;;;6189873;23;20396;-81
2023/07/20 00:58:30;;;;;;;4.70;2.67;;;;;;;;;;6189875;23;20061;-82
2023/07/20 01:00:57;;;;;;;5.15;2.05;;;;;;;;;;6191308;23;20025;-82
2023/07/20 01:03:24;;;;;;;5.32;2.47;;;;;;;;;;6190736;23;20336;-79
2023/07/20 01:05:55;;;;;;;4.90;2.13;;;;;;;;;;6189416;23;20047;-82
2023/07/20 01:08:30;;;;;;;4.63;2.15;;;;;;;;;;6190482;23;20049;-81
2023/07/20 01:11:03;;;;;;;4.18;2.30;;;;;;;;;;6189717;23;20017;-82
2023/07/20 01:13:31;;;;;;;6.00;2.30;;;;;;;;;;6189432;23;20352;-82
2023/07/20 01:15:59;;;;;;;5.40;3.25;;;;;;;;;;6189645;23;20025;-81
2023/07/20 01:18:26;;;;;;;5.40;2.45;;;;;;;;;;6189491;23;20023;-81
2023/07/20 01:20:56;;;;;;;6.78;2.55;;;;;;;;;;6188810;23;20029;-80
2023/07/20 01:23:53;;;;;;;5.70;2.47;;;;;;;;;;6190356;23;20025;-81
2023/07/20 01:26:43;;;;;;;4.15;2.20;;;;;;;;;;6189539;23;20448;-80
2023/07/20 01:29:28;;;;;;;4.57;2.10;;;;;;;;;;6189404;23;20333;-81
2023/07/20 01:31:59;;;;;;;4.88;2.63;;;;;;;;;;6188481;23;20484;-82
2023/07/20 01:34:26;;;;;;;4.55;2.30;;;;;;;;;;6189089;23;20048;-81
2023/07/20 01:36:55;;;;;;;4.30;2.40;;;;;;;;;;6189076;23;20025;-81
2023/07/20 01:39:22;;;;;;;4.53;2.00;;;;;;;;;;6189246;23;20072;-80
2023/07/20 01:41:49;;;;;;;5.07;2.03;;;;;;;;;;6189233;23;20025;-80
2023/07/20 01:44:16;;;;;;;5.28;2.47;;;;;;;;;;6189775;23;20464;-82
2023/07/20 01:46:43;;;;;;;4.15;1.95;;;;;;;;;;6189953;23;20472;-81
2023/07/20 01:49:11;;;;;;;5.07;2.20;;;;;;;;;;6189111;23;20021;-81
2023/07/20 01:51:38;;;;;;;5.30;1.90;;;;;;;;;;6189622;23;20025;-82
2023/07/20 01:54:05;;;;;;;3.47;1.50;;;;;;;;;;6189206;23;20515;-80
2023/07/20 01:56:32;;;;;;;5.03;2.10;;;;;;;;;;6188546;23;20088;-82
2023/07/20 01:58:59;;;;;;;4.40;1.85;;;;;;;;;;6189178;23;20032;-82
2023/07/20 02:01:28;;;;;;;4.55;2.05;;;;;;;;;;6190473;23;20060;-81
2023/07/20 02:03:55;;;;;;;2.95;1.40;;;;;;;;;;6188875;23;20061;-82
2023/07/20 02:06:23;;;;;;;4.82;2.17;;;;;;;;;;6188641;23;20025;-80
2023/07/20 02:08:50;;;;;;;4.30;1.80;;;;;;;;;;6188240;23;20017;-80
2023/07/20 02:11:17;;;;;;;4.50;2.20;;;;;;;;;;6188756;23;20345;-81
2023/07/20 02:13:44;;;;;;;4.25;2.05;;;;;;;;;;6188600;23;20360;-80
2023/07/20 02:16:11;;;;;;;4.18;1.85;;;;;;;;;;6189176;23;20413;-81
2023/07/20 02:18:38;;;;;;;4.68;1.98;;;;;;;;;;6189038;23;20105;-81
2023/07/20 02:21:05;;;;;;;3.10;2.05;;;;;;;;;;6187633;23;20052;-81
2023/07/20 02:23:34;;;;;;;3.88;2.17;;;;;;;;;;6189038;23;20032;-81
2023/07/20 02:26:00;;;;;;;4.85;2.22;;;;;;;;;;6195368;23;20029;-80
2023/07/20 02:28:28;;;;;;;5.07;2.30;;;;;;;;;;6194950;23;20330;-80
2023/07/20 02:30:55;;;;;;;4.05;2.17;;;;;;;;;;6194824;23;20025;-80
2023/07/20 02:33:22;;;;;;;5.00;2.00;;;;;;;;;;6194780;23;20028;-80
2023/07/20 02:35:49;;;;;;;6.43;2.40;;;;;;;;;;6193772;23;20048;-80
2023/07/20 02:38:16;;;;;;;4.45;1.80;;;;;;;;;;6193757;23;20302;-79
2023/07/20 02:40:44;;;;;;;6.28;2.13;;;;;;;;;;6190778;23;20075;-80
2023/07/20 02:43:11;;;;;;;3.92;2.08;;;;;;;;;;6190329;23;20025;-80
2023/07/20 02:45:41;;;;;;;6.55;2.55;;;;;;;;;;6191866;23;20021;-80
2023/07/20 02:48:08;;;;;;;6.15;2.10;;;;;;;;;;6192080;23;20017;-80
2023/07/20 02:50:35;;;;;;;4.63;2.10;;;;;;;;;;6191911;23;20061;-80
2023/07/20 02:53:02;;;;;;;4.13;1.90;;;;;;;;;;6192874;23;20047;-80
2023/07/20 02:55:29;;;;;;;4.07;1.90;;;;;;;;;;6193964;23;20025;-80
2023/07/20 02:57:57;;;;;;;5.85;1.83;;;;;;;;;;6193719;23;20035;-80
2023/07/20 03:00:24;;;;;;;4.45;1.92;;;;;;;;;;6194278;23;20376;-79
2023/07/20 03:02:55;;;;;;;5.57;2.05;;;;;;;;;;6193257;23;20083;-80
2023/07/20 03:05:22;;;;;;;3.78;1.60;;;;;;;;;;6192920;23;20034;-79
2023/07/20 03:07:50;;;;;;;3.03;1.65;;;;;;;;;;6192117;23;20048;-79
2023/07/20 03:10:17;;;;;;;3.58;1.90;;;;;;;;;;6192938;23;20025;-79
2023/07/20 03:12:43;;;;;;;4.68;1.80;;;;;;;;;;6193808;23;20032;-79
2023/07/20 03:15:12;;;;;;;4.22;1.80;;;;;;;;;;6193369;23;20512;-79
2023/07/20 03:17:39;;;;;;;4.20;1.90;;;;;;;;;;6194856;23;20364;-79
2023/07/20 03:20:09;;;;;;;5.60;2.10;;;;;;;;;;6195528;23;20120;-79
2023/07/20 03:22:36;;;;;;;4.10;1.80;;;;;;;;;;6194597;23;20032;-80
2023/07/20 03:25:04;;;;;;;3.63;1.92;;;;;;;;;;6193807;23;20032;-80
2023/07/20 03:27:31;;;;;;;4.68;2.00;;;;;;;;;;6196063;23;20505;-79
2023/07/20 03:29:57;;;;;;;4.68;1.67;;;;;;;;;;6195472;23;20048;-80
2023/07/20 03:32:26;;;;;;;5.03;1.70;;;;;;;;;;6194835;23;20021;-80
2023/07/20 03:34:53;;;;;;;3.35;1.48;;;;;;;;;;6189006;23;20453;-78
2023/07/20 03:37:19;;;;;;;2.55;1.30;;;;;;;;;;6188857;23;20021;-78
2023/07/20 03:39:46;;;;;;;4.35;1.55;;;;;;;;;;6187447;23;20040;-77
2023/07/20 03:42:13;;;;;;;3.03;1.38;;;;;;;;;;6186571;23;20072;-76
2023/07/20 03:44:40;;;;;;;3.70;1.58;;;;;;;;;;6185742;23;20021;-76
2023/07/20 03:47:07;;;;;;;5.05;1.75;;;;;;;;;;6186705;23;20124;-76
2023/07/20 03:49:35;;;;;;;3.15;1.42;;;;;;;;;;6186540;23;20064;-76
2023/07/20 03:52:03;;;;;;;2.75;1.40;;;;;;;;;;6185688;23;20025;-77
2023/07/20 03:54:29;;;;;;;3.47;1.50;;;;;;;;;;6186314;23;20092;-77
2023/07/20 03:56:56;;;;;;;4.20;1.50;;;;;;;;;;6186890;23;20021;-79
2023/07/20 03:59:23;;;;;;;3.15;1.63;;;;;;;;;;6187501;23;20036;-78
2023/07/20 04:01:50;;;;;;;3.35;1.65;;;;;;;;;;6187772;23;20449;-79
2023/07/20 04:04:17;;;;;;;4.30;1.90;;;;;;;;;;6187877;23;20024;-80
2023/07/20 04:06:45;;;;;;;3.88;1.23;;;;;;;;;;6194980;23;20025;-79
2023/07/20 04:09:13;;;;;;;3.78;1.92;;;;;;;;;;6193887;23;20108;-79
2023/07/20 04:11:40;;;;;;;4.28;2.03;;;;;;;;;;6190036;23;20021;-78
2023/07/20 04:14:07;;;;;;;3.38;1.60;;;;;;;;;;6194403;23;20028;-78
2023/07/20 04:16:34;;;;;;;5.13;1.80;;;;;;;;;;6197044;23;20068;-79
2023/07/20 04:19:00;;;;;;;4.57;1.90;;;;;;;;;;6194275;23;20281;-78
2023/07/20 04:21:29;;;;;;;7.05;2.15;;;;;;;;;;6191525;23;20025;-79
2023/07/20 04:23:57;;;;;;;3.88;2.00;;;;;;;;;;6186115;23;20139;-77
2023/07/20 04:26:24;;;;;;;3.85;1.88;;;;;;;;;;6186206;23;20024;-77
2023/07/20 04:28:52;;;;;;;3.85;2.17;;;;;;;;;;6184924;23;20153;-77
2023/07/20 04:31:19;;;;;;;4.90;1.77;;;;;;;;;;6184820;23;20021;-77
2023/07/20 04:33:46;;;;;;;3.42;1.42;;;;;;;;;;6184798;23;20025;-77
2023/07/20 04:36:14;;;;;;;4.05;1.80;;;;;;;;;;6186270;23;20440;-78
2023/07/20 04:38:41;;;;;;;4.55;1.92;;;;;;;;;;6186487;23;20029;-78
2023/07/20 04:41:12;;;;;;;3.03;1.55;;;;;;;;;;6186208;23;20341;-78
2023/07/20 04:43:42;;;;;;;5.38;1.60;;;;;;;;;;6192241;23;20123;-80
2023/07/20 04:46:09;;;;;;;5.95;2.00;;;;;;;;;;6191258;23;20101;-78
2023/07/20 04:48:36;;;;;;;4.43;2.10;;;;;;;;;;6167321;23;20033;-81
2023/07/20 04:51:04;;;;;;;5.53;1.90;;;;;;;;;;6190105;23;20017;-81
2023/07/20 04:53:31;;;;;;;3.15;1.60;;;;;;;;;;6190497;23;20025;-79
2023/07/20 04:55:58;;;;;;;2.70;1.48;;;;;;;;;;6191367;23;20017;-76
2023/07/20 04:58:27;;;;;;;6.70;2.10;;;;;;;;;;6189167;23;20031;-77
2023/07/20 05:00:54;;;;;;;3.35;1.80;;;;;;;;;;6189945;23;20029;-81
2023/07/20 05:03:20;;;;;;;5.07;1.98;;;;;;;;;;6190992;23;20032;-79
2023/07/20 05:05:47;;;;;;;5.03;1.80;;;;;;;;;;6195035;23;20056;-79
2023/07/20 05:08:14;;;;;;;3.55;2.00;;;;;;;;;;6196809;23;20021;-79
2023/07/20 05:10:41;;;;;;;3.72;1.85;;;;;;;;;;6196462;23;20021;-79
2023/07/20 05:13:08;;;;;;;5.40;1.95;;;;;;;;;;6197420;23;20079;-79
2023/07/20 05:15:36;;;;;;;5.22;2.13;;;;;;;;;;6197180;23;20092;-79
2023/07/20 05:18:03;;;;;;;6.50;2.17;;;;;;;;;;6197065;23;20076;-79
2023/07/20 05:20:31;;;;;;;4.03;1.90;;;;;;;;;;6196046;23;20065;-78
2023/07/20 05:22:58;;;;;;;3.97;1.80;;;;;;;;;;6195573;23;20028;-79
2023/07/20 05:25:25;;;;;;;5.00;1.85;;;;;;;;;;6195419;23;20488;-79
2023/07/20 05:27:55;;;;;;;4.13;1.90;;;;;;;;;;6196357;23;20021;-80
2023/07/20 05:30:22;;;;;;;5.57;2.00;;;;;;;;;;6189692;23;20460;-77
2023/07/20 05:32:54;;;;;;;6.68;2.00;;;;;;;;;;6185770;23;20027;-77
2023/07/20 05:35:22;;;;;;;4.57;1.67;;;;;;;;;;6199118;23;20028;-82
2023/07/20 05:37:49;;;;;;;4.80;1.80;;;;;;;;;;6197107;23;20063;-82
2023/07/20 05:40:18;;;;;;;4.28;1.77;;;;;;;;;;6194841;23;20068;-82
2023/07/20 05:42:46;;;;;;;3.58;1.63;;;;;;;;;;6193517;23;20024;-82
2023/07/20 05:45:13;;;;;;;4.55;1.77;;;;;;;;;;6194164;23;20020;-82
2023/07/20 05:47:40;;;;;;;7.15;2.33;;;;;;;;;;6193715;23;20021;-82
2023/07/20 05:50:09;;;;;;;4.35;1.77;;;;;;;;;;6192708;23;20031;-82
2023/07/20 05:52:36;;;;;;;4.43;2.15;;;;;;;;;;6193908;23;20039;-78
2023/07/20 05:55:03;;;;;;;4.03;2.03;;;;;;;;;;6187069;23;20025;-78
2023/07/20 05:57:29;;;;;;;4.97;2.08;;;;;;;;;;6186844;23;20029;-78
2023/07/20 05:59:56;;;;;;;5.70;2.17;;;;;;;;;;6188632;23;20025;-78
2023/07/20 06:02:23;;;;;;;6.30;2.10;;;;;;;;;;6189606;23;20025;-78
2023/07/20 06:04:50;;;;;;;4.18;1.95;;;;;;;;;;6188709;23;20028;-80
2023/07/20 06:07:18;;;;;;;3.33;1.98;;;;;;;;;;6190327;23;20444;-79
2023/07/20 06:09:45;;;;;;;3.88;1.90;;;;;;;;;;6191371;23;20472;-79
2023/07/20 06:12:12;;;;;;;4.57;1.95;;;;;;;;;;6188406;23;20025;-79
2023/07/20 06:14:39;;;;;;;4.72;1.92;;;;;;;;;;6188106;23;20063;-78
2023/07/20 06:17:06;;;;;;;4.20;1.98;;;;;;;;;;6190493;23;20021;-78
2023/07/20 06:19:33;;;;;;;4.07;1.92;;;;;;;;;;6190446;23;20021;-78
2023/07/20 06:22:00;;;;;;;5.00;2.45;;;;;;;;;;6189847;23;20095;-78
2023/07/20 06:24:28;;;;;;;5.15;2.20;;;;;;;;;;6189814;23;20467;-77
2023/07/20 06:26:55;;;;;;;4.50;1.92;;;;;;;;;;6189716;23;20030;-78
2023/07/20 06:29:22;;;;;;;3.92;1.98;;;;;;;;;;6190422;23;20021;-78
2023/07/20 06:31:49;;;;;;;4.10;2.25;;;;;;;;;;6190665;23;20025;-78
2023/07/20 06:34:15;;;;;;;4.10;1.90;;;;;;;;;;6191159;23;20032;-79
2023/07/20 06:36:42;;;;;;;3.42;1.95;;;;;;;;;;6192860;23;20029;-80
2023/07/20 06:39:09;;;;;;;4.82;2.30;;;;;;;;;;6193257;23;20364;-78
2023/07/20 06:41:37;;;;;;;3.60;2.00;;;;;;;;;;6192006;23;20029;-80
2023/07/20 06:44:05;;;;;;;4.75;2.13;;;;;;;;;;6194940;23;20021;-79
2023/07/20 06:46:31;;;;;;;5.30;1.83;;;;;;;;;;6194472;23;20092;-81
2023/07/20 06:48:58;;;;;;;4.25;2.22;;;;;;;;;;6195264;23;20036;-79
2023/07/20 06:51:25;;;;;;;4.05;1.85;;;;;;;;;;6194222;23;20035;-81
2023/07/20 06:53:52;;;;;;;4.10;1.80;;;;;;;;;;6200040;23;20036;-81
2023/07/20 06:56:19;;;;;;;4.25;2.00;;;;;;;;;;6199196;23;20044;-80
2023/07/20 06:58:47;;;;;;;4.00;1.85;;;;;;;;;;6200429;23;20028;-81
2023/07/20 07:01:14;;;;;;;4.03;1.95;;;;;;;;;;6200214;23;20025;-82
2023/07/20 07:03:41;;;;;;;3.88;1.80;;;;;;;;;;6201135;23;20021;-81
2023/07/20 07:06:08;;;;;;;4.22;2.08;;;;;;;;;;6202832;23;20029;-81
2023/07/20 07:08:35;;;;;;;5.05;2.17;;;;;;;;;;6202509;23;20112;-81
2023/07/20 07:11:02;;;;;;;4.47;2.10;;;;;;;;;;6200290;23;20404;-81
2023/07/20 07:13:30;;;;;;;4.68;2.20;;;;;;;;;;6195770;23;20089;-77
2023/07/20 07:15:58;;;;;;;4.05;2.10;;;;;;;;;;6194913;23;20032;-79
2023/07/20 07:18:26;;;;;;;4.57;2.53;;;;;;;;;;6190903;23;20017;-80
2023/07/20 07:20:53;;;;;;;4.63;1.90;;;;;;;;;;6190527;23;20017;-79
2023/07/20 07:23:20;;;;;;;3.53;1.88;;;;;;;;;;6192610;23;20021;-80
2023/07/20 07:25:47;;;;;;;6.05;1.77;;;;;;;;;;6193103;23;20076;-81
2023/07/20 07:28:14;;;;;;;4.47;2.03;;;;;;;;;;6193026;23;20024;-82
2023/07/20 07:30:42;;;;;;;5.75;1.73;;;;;;;;;;6190960;23;20073;-78
2023/07/20 07:33:10;;;;;;;4.60;2.00;;;;;;;;;;6190771;23;20021;-80
2023/07/20 07:35:38;;;;;;;3.65;2.10;;;;;;;;;;6192325;23;20024;-80
2023/07/20 07:38:05;;;;;;;4.50;2.08;;;;;;;;;;6191779;23;20028;-80
2023/07/20 07:40:32;;;;;;;6.60;2.60;;;;;;;;;;6193559;23;20031;-80
2023/07/20 07:42:59;;;;;;;3.08;1.63;;;;;;;;;;6191768;23;20017;-78
2023/07/20 07:45:25;;;;;;;5.13;2.17;;;;;;;;;;6185408;23;20540;-78
2023/07/20 07:47:52;;;;;;;3.92;1.88;;;;;;;;;;6186660;23;20028;-79
2023/07/20 07:50:21;;;;;;;4.78;1.50;;;;;;;;;;6187329;23;20028;-81
2023/07/20 07:52:48;;;;;;;3.28;1.80;;;;;;;;;;6190279;23;20056;-79
2023/07/20 07:55:16;;;;;;;6.88;1.83;;;;;;;;;;6191224;23;20029;-81
2023/07/20 07:57:43;;;;;;;4.57;2.05;;;;;;;;;;6191187;23;20029;-80
2023/07/20 08:00:14;;;;;;;4.53;2.05;;;;;;;;;;6190497;23;20029;-79
2023/07/20 08:02:41;;;;;;;3.70;2.00;;;;;;;;;;6192176;23;20023;-81
2023/07/20 08:05:08;;;;;;;5.72;2.05;;;;;;;;;;6184642;23;20503;-74
2023/07/20 08:07:37;;;;;;;4.55;2.17;;;;;;;;;;6181739;23;20060;-75
2023/07/20 08:10:04;;;;;;;4.03;2.17;;;;;;;;;;6182146;23;20021;-75
2023/07/20 08:12:31;;;;;;;4.45;2.00;;;;;;;;;;6182315;23;20449;-75
2023/07/20 08:14:58;;;;;;;4.15;1.90;;;;;;;;;;6182321;23;20021;-76
2023/07/20 08:17:25;;;;;;;5.32;2.10;;;;;;;;;;6182566;23;20353;-75
2023/07/20 08:19:52;;;;;;;4.40;1.95;;;;;;;;;;6183418;23;20025;-75
2023/07/20 08:22:19;;;;;;;3.97;1.98;;;;;;;;;;6181924;23;20642;-74
2023/07/20 08:24:47;;;;;;;4.05;2.00;;;;;;;;;;6181258;23;20021;-76
2023/07/20 08:27:14;;;;;;;4.35;2.75;;;;;;;;;;6181429;23;20021;-75
2023/07/20 08:29:41;;;;;;;3.47;1.90;;;;;;;;;;6181516;23;20036;-76
2023/07/20 08:32:08;;;;;;;5.13;1.90;;;;;;;;;;6181313;23;20079;-74
2023/07/20 08:34:35;;;;;;;4.05;2.00;;;;;;;;;;6180892;23;20021;-75
2023/07/20 08:37:01;;;;;;;4.93;1.73;;;;;;;;;;6181439;23;20569;-74
2023/07/20 08:39:28;;;;;;;4.80;2.10;;;;;;;;;;6181650;23;20333;-78
2023/07/20 08:42:01;;;;;;;3.65;1.60;;;;;;;;;;6182268;23;20076;-74
2023/07/20 08:44:28;;;;;;;5.07;2.10;;;;;;;;;;6181883;23;20407;-74
2023/07/20 08:46:56;;;;;;;4.85;2.13;;;;;;;;;;6182095;23;20025;-75
2023/07/20 08:49:22;;;;;;;4.55;2.08;;;;;;;;;;6181988;23;20032;-75
2023/07/20 08:51:49;;;;;;;3.92;1.90;;;;;;;;;;6181778;23;20021;-75
2023/07/20 08:54:17;;;;;;;3.50;2.13;;;;;;;;;;6181829;23;20025;-75
2023/07/20 08:56:46;;;;;;;4.00;2.00;;;;;;;;;;6182606;23;20025;-77
2023/07/20 08:59:18;;;;;;;6.67;2.23;;;;;;;;;;6183041;23;20048;-78
2023/07/20 09:01:46;;;;;;;4.22;1.77;;;;;;;;;;6183983;23;20025;-77
2023/07/20 09:04:13;;;;;;;7.90;2.35;;;;;;;;;;6181681;23;20024;-75
2023/07/20 09:06:40;;;;;;;3.60;2.00;;;;;;;;;;6180939;23;20028;-76
2023/07/20 09:09:07;;;;;;;4.45;1.90;;;;;;;;;;6181426;23;20103;-77
2023/07/20 09:11:34;;;;;;;3.22;1.83;;;;;;;;;;6182104;23;20025;-77
2023/07/20 09:14:05;;;;;;;2.85;1.60;;;;;;;;;;6182316;23;20508;-76
2023/07/20 09:16:34;;;;;;;3.35;1.70;;;;;;;;;;6182677;23;20048;-77
2023/07/20 09:19:01;;;;;;;6.75;2.05;;;;;;;;;;6182449;23;20024;-77
2023/07/20 09:21:30;;;;;;;5.97;1.85;;;;;;;;;;6181957;23;20021;-79
2023/07/20 09:23:58;;;;;;;3.83;2.00;;;;;;;;;;6186984;23;20021;-79
2023/07/20 09:26:24;;;;;;;3.35;1.70;;;;;;;;;;6188492;23;20036;-79
2023/07/20 09:28:54;;;;;;;4.38;1.88;;;;;;;;;;6187009;23;20017;-79
2023/07/20 09:31:22;;;;;;;3.40;1.80;;;;;;;;;;6187472;23;20124;-79
2023/07/20 09:33:53;;;;;;;4.30;1.83;;;;;;;;;;6188044;23;20025;-78
2023/07/20 09:36:20;;;;;;;4.30;1.90;;;;;;;;;;6188158;23;20048;-79
2023/07/20 09:38:47;;;;;;;4.07;1.70;;;;;;;;;;6187798;23;20028;-78
2023/07/20 09:41:17;;;;;;;3.38;1.90;;;;;;;;;;6187300;23;20048;-79
2023/07/20 09:43:44;;;;;;;5.47;2.33;;;;;;;;;;6187912;23;20063;-79
2023/07/20 09:46:10;;;;;;;3.63;1.92;;;;;;;;;;6188862;23;20555;-79
2023/07/20 09:48:37;;;;;;;3.85;1.60;;;;;;;;;;6188042;23;20381;-79
2023/07/20 09:51:07;;;;;;;4.13;1.88;;;;;;;;;;6190169;23;20021;-78
2023/07/20 09:53:34;;;;;;;4.55;1.70;;;;;;;;;;6188951;23;20079;-83
2023/07/20 09:56:03;;;;;;;4.85;2.05;;;;;;;;;;6190692;23;20029;-79
2023/07/20 09:58:31;;;;;;;4.28;2.13;;;;;;;;;;6188484;23;20068;-75
2023/07/20 10:01:02;;;;;;;4.97;1.88;;;;;;;;;;6189480;23;20059;-79
2023/07/20 10:03:30;;;;;;;4.32;2.10;;;;;;;;;;6188393;23;20036;-77
2023/07/20 10:05:59;;;;;;;4.93;1.90;;;;;;;;;;6184409;23;20017;-77
2023/07/20 10:08:30;;;;;;;4.88;1.85;;;;;;;;;;6188567;23;20021;-79
2023/07/20 10:11:00;;;;;;;3.88;1.77;;;;;;;;;;6184892;23;20036;-76
2023/07/20 10:13:27;;;;;;;;;;;;;;;;;;6185677;23;20076;-75
2023/07/20 10:15:59;;;;;;;3.88;1.90;;;;;;;;;;6188128;23;19967;-79
2023/07/20 10:18:31;;;;;;;4.07;2.08;;;;;;;;;;6192143;23;20071;-84
2023/07/20 10:21:00;;;;;;;3.63;1.92;;;;;;;;;;6190717;23;20025;-80
2023/07/20 10:23:30;;;;;;;3.08;1.55;;;;;;;;;;6192587;23;20053;-80
2023/07/20 10:25:58;;;;;;;5.07;2.00;;;;;;;;;;6192526;23;20059;-80
2023/07/20 10:28:25;;;;;;;3.38;2.00;;;;;;;;;;6191984;23;20028;-79
2023/07/20 10:30:52;;;;;;;5.03;2.97;;;;;;;;;;6190097;23;20075;-77
2023/07/20 10:33:21;;;;;;;3.50;1.88;;;;;;;;;;6187064;23;20033;-83
2023/07/20 10:35:55;;;;;;;4.43;1.92;;;;;;;;;;6187424;23;20025;-80
2023/07/20 10:38:39;;;;;;;5.57;2.22;;;;;;;;;;6186037;23;20095;-80
2023/07/20 10:41:17;;;;;;;6.38;2.38;;;;;;;;;;6189883;23;20072;-80
2023/07/20 10:43:44;;;;;;;4.30;2.60;;;;;;;;;;6188002;23;20025;-80
2023/07/20 10:46:12;;;;;;;2.97;1.77;;;;;;;;;;6189922;23;20029;-80
2023/07/20 10:49:00;;;;;;;3.80;2.10;;;;;;;;;;6189453;23;20025;-80
2023/07/20 10:51:27;;;;;;;3.83;1.83;;;;;;;;;;6195624;23;20021;-83
2023/07/20 10:53:58;;;;;;;5.68;2.17;;;;;;;;;;6194974;23;20549;-81
2023/07/20 10:56:27;;;;;;;5.30;2.38;;;;;;;;;;6190974;23;20046;-82
2023/07/20 10:58:59;;;;;;;5.30;2.20;;;;;;;;;;6192392;23;20024;-82
2023/07/20 11:01:30;;;;;;;3.97;2.03;;;;;;;;;;6192286;23;20021;-82
2023/07/20 11:04:00;;;;;;;5.60;2.83;;;;;;;;;;6192189;23;20055;-81
2023/07/20 11:06:33;;;;;;;;;;;;;;;;;;6188995;23;20025;-81
2023/07/20 11:09:10;;;;;;;4.00;1.88;;;;;;;;;;6188449;23;19916;-79
2023/07/20 11:11:39;;;;;;;3.70;1.90;;;;;;;;;;6189716;23;20378;-80
2023/07/20 11:14:08;;;;;;;5.07;2.13;;;;;;;;;;6190690;23;20075;-79
2023/07/20 11:16:37;;;;;;;4.60;2.10;;;;;;;;;;6188718;23;20104;-78
2023/07/20 11:19:04;;;;;;;4.95;2.20;;;;;;;;;;6190268;23;20343;-81
2023/07/20 11:21:37;;;;;;;4.05;1.80;;;;;;;;;;6192043;23;20025;-81
2023/07/20 11:24:05;;;;;;;4.75;2.08;;;;;;;;;;6193874;23;20024;-78
2023/07/20 11:26:43;;;;;;;3.90;2.10;;;;;;;;;;6189805;23;20029;-78
2023/07/20 11:29:11;;;;;;;4.13;2.10;;;;;;;;;;6191968;23;20032;-79
2023/07/20 11:31:39;;;;;;;5.63;2.15;;;;;;;;;;6189234;23;20023;-81
2023/07/20 11:34:05;;;;;;;3.58;1.77;;;;;;;;;;6187952;23;20501;-83
2023/07/20 11:36:32;;;;;;;5.00;2.13;;;;;;;;;;6190992;23;20021;-80
2023/07/20 11:39:00;;;;;;;5.28;2.15;;;;;;;;;;6191795;23;20045;-81
2023/07/20 11:41:27;;;;;;;3.72;2.28;;;;;;;;;;6190009;23;20091;-79
2023/07/20 11:43:56;;;;;;;4.03;1.90;;;;;;;;;;6187247;23;20480;-77
2023/07/20 11:46:23;;;;;;;4.30;2.03;;;;;;;;;;6188147;23;20062;-79
2023/07/20 11:48:49;;;;;;;6.40;2.60;;;;;;;;;;6188482;23;20023;-78
2023/07/20 11:51:17;;;;;;;3.20;1.80;;;;;;;;;;6185299;23;20021;-79
2023/07/20 11:53:46;;;;;;;4.10;2.10;;;;;;;;;;6185514;23;20053;-79
2023/07/20 11:56:13;;;;;;;4.05;1.83;;;;;;;;;;6183520;23;20033;-75
2023/07/20 11:58:44;;;;;;;3.97;1.80;;;;;;;;;;6182867;23;20017;-77
2023/07/20 12:01:14;;;;;;;2.92;1.73;;;;;;;;;;6183208;23;20035;-77
2023/07/20 12:03:43;;;;;;;4.93;2.00;;;;;;;;;;6183735;23;20025;-76
2023/07/20 12:06:10;;;;;;;3.72;2.33;;;;;;;;;;6185461;23;20457;-76
2023/07/20 12:08:40;;;;;;;3.60;1.85;;;;;;;;;;6185393;23;20025;-80
2023/07/20 12:11:07;;;;;;;4.60;2.08;;;;;;;;;;6181921;23;20500;-77
2023/07/20 12:13:38;;;;;;;4.45;2.03;;;;;;;;;;6182407;23;20024;-77
2023/07/20 12:16:13;;;;;;;4.68;1.92;;;;;;;;;;6181586;23;20025;-73
2023/07/20 12:18:41;;;;;;;4.47;2.20;;;;;;;;;;6181133;23;20624;-79
2023/07/20 12:21:09;;;;;;;3.85;1.92;;;;;;;;;;6181251;23;20023;-77
2023/07/20 12:23:38;;;;;;;4.20;1.83;;;;;;;;;;6179741;23;20083;-75
2023/07/20 12:26:07;;;;;;;3.42;1.70;;;;;;;;;;6184246;23;20100;-79
2023/07/20 12:28:34;;;;;;;5.93;2.28;;;;;;;;;;6186348;23;20017;-77
2023/07/20 12:31:01;;;;;;;3.65;2.13;;;;;;;;;;6185034;23;20025;-76
2023/07/20 12:33:28;;;;;;;4.15;2.13;;;;;;;;;;6191963;23;20032;-80
2023/07/20 12:35:58;;;;;;;4.40;2.13;;;;;;;;;;6191006;23;20411;-78
2023/07/20 12:38:27;;;;;;;3.55;1.60;;;;;;;;;;6187431;23;20108;-79
2023/07/20 12:40:54;;;;;;;4.32;2.15;;;;;;;;;;6187795;23;20017;-79
2023/07/20 12:43:21;;;;;;;4.97;2.33;;;;;;;;;;6188852;23;20018;-79
2023/07/20 12:45:48;;;;;;;5.18;2.03;;;;;;;;;;6189456;23;20021;-80
2023/07/20 12:48:15;;;;;;;3.33;1.80;;;;;;;;;;6190246;23;20021;-80
2023/07/20 12:50:42;;;;;;;3.88;1.88;;;;;;;;;;6189838;23;20021;-80
2023/07/20 12:53:10;;;;;;;4.68;2.13;;;;;;;;;;6192282;23;20025;-81
2023/07/20 12:55:38;;;;;;;8.50;2.42;;;;;;;;;;6189852;23;20025;-79
2023/07/20 12:58:05;;;;;;;3.10;1.80;;;;;;;;;;6189996;23;20080;-80
2023/07/20 13:00:32;;;;;;;5.28;1.85;;;;;;;;;;6188374;23;20348;-79
2023/07/20 13:03:00;;;;;;;6.25;2.35;;;;;;;;;;6187069;23;20100;-78
2023/07/20 13:05:27;;;;;;;3.55;1.85;;;;;;;;;;6186983;23;20348;-78
2023/07/20 13:07:53;;;;;;;8.70;2.25;;;;;;;;;;6187819;23;20079;-79
2023/07/20 13:10:22;;;;;;;4.53;2.35;;;;;;;;;;6188030;23;20021;-79
2023/07/20 13:12:48;;;;;;;5.63;1.80;;;;;;;;;;6186083;23;20021;-80
2023/07/20 13:15:15;;;;;;;4.45;2.03;;;;;;;;;;6184789;23;20028;-79
2023/07/20 13:17:42;;;;;;;4.05;1.90;;;;;;;;;;6188442;23;20317;-80
2023/07/20 13:20:11;;;;;;;3.35;1.77;;;;;;;;;;6195483;23;20036;-80
2023/07/20 13:22:38;;;;;;;4.10;2.00;;;;;;;;;;6196030;23;20021;-80
2023/07/20 13:25:09;;;;;;;4.13;2.00;;;;;;;;;;6195463;23;20041;-81
2023/07/20 13:27:38;;;;;;;4.32;2.05;;;;;;;;;;6194331;23;20021;-81
2023/07/20 13:30:07;;;;;;;5.88;2.10;;;;;;;;;;6192653;23;20562;-79
2023/07/20 13:32:34;;;;;;;;;;;;;;;;;;6192381;23;20053;-80
2023/07/20 13:35:01;;;;;;;2.47;1.50;;;;;;;;;;6192447;23;19920;-79
2023/07/20 13:37:28;;;;;;;4.03;1.90;;;;;;;;;;6192752;23;20049;-80
2023/07/20 13:39:55;;;;;;;3.95;1.80;;;;;;;;;;6190590;23;20025;-79
2023/07/20 13:42:21;;;;;;;4.95;1.90;;;;;;;;;;6191170;23;20023;-79
2023/07/20 13:44:50;;;;;;;4.10;1.77;;;;;;;;;;6188627;23;20028;-79
2023/07/20 13:47:16;;;;;;;4.93;2.08;;;;;;;;;;6184938;23;20028;-78
2023/07/20 13:49:44;;;;;;;4.32;2.08;;;;;;;;;;6186532;23;20037;-80
2023/07/20 13:52:11;;;;;;;3.47;1.75;;;;;;;;;;6189426;23;20658;-79
2023/07/20 13:54:38;;;;;;;5.55;1.80;;;;;;;;;;6187260;23;20032;-79
2023/07/20 13:57:05;;;;;;;3.65;1.75;;;;;;;;;;6187678;23;20088;-80
2023/07/20 13:59:32;;;;;;;3.80;1.70;;;;;;;;;;6188009;23;20059;-80
2023/07/20 14:02:00;;;;;;;3.60;1.60;;;;;;;;;;6186904;23;20492;-80
2023/07/20 14:04:27;;;;;;;2.53;1.67;;;;;;;;;;6187017;23;20029;-80
2023/07/20 14:06:54;;;;;;;3.95;1.98;;;;;;;;;;6186633;23;20056;-80
2023/07/20 14:09:20;;;;;;;3.47;1.85;;;;;;;;;;6189115;23;20337;-79
2023/07/20 14:11:47;;;;;;;3.78;1.70;;;;;;;;;;6192429;23;20152;-81
2023/07/20 14:14:14;;;;;;;4.35;2.40;;;;;;;;;;6192048;23;20021;-78
2023/07/20 14:16:41;;;;;;;4.10;1.75;;;;;;;;;;6189652;23;20072;-80
2023/07/20 14:19:09;;;;;;;5.25;1.70;;;;;;;;;;6189498;23;20021;-79
2023/07/20 14:21:36;;;;;;;3.40;1.75;;;;;;;;;;6187982;23;20025;-79
2023/07/20 14:24:03;;;;;;;4.00;1.90;;;;;;;;;;6186998;23;20025;-77
2023/07/20 14:26:30;;;;;;;15.23;5.93;;;;;;;;;;6185171;23;20100;-81
2023/07/20 14:28:57;;;;;;;3.63;2.05;;;;;;;;;;6187111;23;20028;-80
2023/07/20 14:31:24;;;;;;;5.97;3.28;;;;;;;;;;6185925;23;20025;-81
2023/07/20 14:33:51;;;;;;;5.10;2.40;;;;;;;;;;6184130;23;20833;-79
2023/07/20 14:36:19;;;;;;;4.47;2.08;;;;;;;;;;6184498;23;20048;-78
2023/07/20 14:38:48;;;;;;;5.43;2.33;;;;;;;;;;6185630;23;20037;-79
2023/07/20 14:41:15;;;;;;;4.47;2.17;;;;;;;;;;6187645;23;20021;-79
2023/07/20 14:43:42;;;;;;;3.60;1.70;;;;;;;;;;6193064;23;20243;-80
2023/07/20 14:46:09;;;;;;;3.58;1.70;;;;;;;;;;6191932;23;20025;-80
2023/07/20 14:48:35;;;;;;;3.60;1.85;;;;;;;;;;6187724;23;20036;-78